Satelliet + Buien/onweerradar
Bron: Weerslag
Temperatuur
Bron: Weerslag
Gevoelstemperatuur
Bron: Weerplaza
Zicht
Bron: Weerplaza
Meest Recent
16-11-2018 Borgercompagnie 05:16:02 1.2 schaal van Richter 3.0 km diepte
Aardbevingen NL - Kaart
Wit:
vandaag
tm 1 week
Geel:
1 week
tm 1 maand
Groen:
1 maand
tm 2 maanden
Oranje:
2 maanden
tm 4 maanden
Rood:
4 maanden
tm 8 maanden
Paars:
8 maanden >
Aardbevingen NL - Textueel laatste 30 meldingen - (uitklapbaar)
# Datum Plaats Tijd Mag Diepte Type Lat Long
1 16-11-2018 Borgercompagnie 05:16:02 1.2 3.0 km niet Tektonisch 53.090 6.834
2 16-11-2018 Hellum 01:40:27 0.8 3.0 km niet Tektonisch 53.250 6.857
3 09-11-2018 Eppenhuizen 15:41:12 1.6 3.0 km niet Tektonisch 53.367 6.680
4 07-11-2018 Schildwolde 00:23:25 0.8 3.0 km niet Tektonisch 53.217 6.838
5 29-10-2018 Zandeweer 15:37:45 0.8 3.0 km niet Tektonisch 53.386 6.672
6 23-10-2018 Appingedam 14:10:53 0.8 3.0 km niet Tektonisch 53.298 6.834
7 20-10-2018 Appingedam 04:53:25 0.8 3.0 km niet Tektonisch 53.323 6.875
8 17-10-2018 Cappeln (Duitsland) 23:56:15 2.6 3.0 km niet Tektonisch 52.761 8.054
9 16-10-2018 Siddeburen 10:31:37 1.1 3.0 km niet Tektonisch 53.252 6.858
10 14-10-2018 Garrelsweer 12:15:20 0.6 3.0 km niet Tektonisch 53.295 6.798
11 10-10-2018 Loppersum 14:00:49 0.5 3.0 km niet Tektonisch 53.347 6.732
12 10-10-2018 Loppersum 07:50:43 0.5 3.0 km niet Tektonisch 53.347 6.734
13 01-10-2018 Cappeln (Duitsland) 00:28:07 3.7 3.0 km niet Tektonisch 52.756 8.074
14 01-10-2018 Cappeln (Duitsland) 00:26:29 2.3 3.0 km niet Tektonisch 52.779 8.116
15 28-09-2018 Cappeln (Duitsland) 15:21:53 3.2 3.0 km niet Tektonisch 52.770 8.079
16 26-09-2018 Schildwolde 15:49:55 0.8 3.0 km niet Tektonisch 53.236 6.824
17 20-09-2018 Hoogezand 20:24:52 0.5 3.0 km niet Tektonisch 53.161 6.758
18 18-09-2018 Bedum 02:23:00 0.7 3.0 km niet Tektonisch 53.297 6.566
19 17-09-2018 Startenhuizen 17:29:25 0.6 3.0 km niet Tektonisch 53.381 6.713
20 17-09-2018 Sappemeer 14:01:36 1.2 3.0 km niet Tektonisch 53.181 6.799
21 16-09-2018 Samtgemeinde Emlichheim (Duitsland) 00:07:41 1.1 3.0 km niet Tektonisch 52.639 6.881
22 15-09-2018 Sappemeer 06:32:19 0.5 3.0 km niet Tektonisch 53.181 6.799
23 14-09-2018 Hellum 21:07:03 0.8 3.0 km niet Tektonisch 53.233 6.846
24 13-09-2018 Sprimont (België) 22:31:18 2.4 5.0 km Tektonisch 50.493 5.689
25 03-09-2018 Velden 18:20:34 2.0 1.0 km Tektonisch 51.403 6.156
26 22-08-2018 `t Zandt 14:36:00 0.5 3.0 km niet Tektonisch 53.378 6.754
27 13-08-2018 Slochteren 13:48:37 0.7 3.0 km niet Tektonisch 53.207 6.838
28 09-08-2018 Oberhausen (Duitsland) 19:31:23 2.0 1.0 km niet Tektonisch 51.548 6.867
29 09-08-2018 Appingedam 08:01:55 1.8 3.0 km niet Tektonisch 53.324 6.877
30 08-08-2018 Heerlen 22:45:44 0.5 9.0 km Tektonisch 50.917 6.003